sensor_id;sensor_type;location;lat;lon;timestamp;temperature;humidity
30300;DHT22;17110;52.602;12.998;2023-04-25T00:02:19;9.10;99.90
30300;DHT22;17110;52.602;12.998;2023-04-25T00:04:45;9.10;99.90
30300;DHT22;17110;52.602;12.998;2023-04-25T00:07:11;9.10;99.90
30300;DHT22;17110;52.602;12.998;2023-04-25T00:09:37;9.10;99.90
30300;DHT22;17110;52.602;12.998;2023-04-25T00:12:03;9.10;99.90
30300;DHT22;17110;52.602;12.998;2023-04-25T00:14:29;9.10;99.90
30300;DHT22;17110;52.602;12.998;2023-04-25T00:16:55;9.10;99.90
30300;DHT22;17110;52.602;12.998;2023-04-25T00:19:21;9.10;99.90
30300;DHT22;17110;52.602;12.998;2023-04-25T00:21:49;9.10;99.90
30300;DHT22;17110;52.602;12.998;2023-04-25T00:24:17;9.10;99.90
30300;DHT22;17110;52.602;12.998;2023-04-25T00:26:42;9.10;99.90
30300;DHT22;17110;52.602;12.998;2023-04-25T00:29:08;9.10;99.90
30300;DHT22;17110;52.602;12.998;2023-04-25T00:31:33;9.10;99.90
30300;DHT22;17110;52.602;12.998;2023-04-25T00:33:59;9.00;99.90
30300;DHT22;17110;52.602;12.998;2023-04-25T00:36:25;9.10;99.90
30300;DHT22;17110;52.602;12.998;2023-04-25T00:38:51;8.90;99.90
30300;DHT22;17110;52.602;12.998;2023-04-25T00:41:18;8.90;99.90
30300;DHT22;17110;52.602;12.998;2023-04-25T00:43:45;9.00;99.90
30300;DHT22;17110;52.602;12.998;2023-04-25T00:46:11;9.00;99.90
30300;DHT22;17110;52.602;12.998;2023-04-25T00:48:36;9.00;99.90
30300;DHT22;17110;52.602;12.998;2023-04-25T00:51:02;9.00;99.90
30300;DHT22;17110;52.602;12.998;2023-04-25T00:53:28;8.90;99.90
30300;DHT22;17110;52.602;12.998;2023-04-25T00:55:55;9.00;99.90
30300;DHT22;17110;52.602;12.998;2023-04-25T00:58:21;9.00;99.90
30300;DHT22;17110;52.602;12.998;2023-04-25T01:00:48;9.00;99.90
30300;DHT22;17110;52.602;12.998;2023-04-25T01:03:16;9.10;99.90
30300;DHT22;17110;52.602;12.998;2023-04-25T01:05:43;9.10;99.90
30300;DHT22;17110;52.602;12.998;2023-04-25T01:08:09;8.90;99.90
30300;DHT22;17110;52.602;12.998;2023-04-25T01:10:35;9.00;99.90
30300;DHT22;17110;52.602;12.998;2023-04-25T01:13:01;9.00;99.90
30300;DHT22;17110;52.602;12.998;2023-04-25T01:15:26;9.00;99.90
30300;DHT22;17110;52.602;12.998;2023-04-25T01:17:52;9.00;99.90
30300;DHT22;17110;52.602;12.998;2023-04-25T01:20:20;8.90;99.90
30300;DHT22;17110;52.602;12.998;2023-04-25T01:22:46;9.00;99.90
30300;DHT22;17110;52.602;12.998;2023-04-25T01:25:12;8.90;99.90
30300;DHT22;17110;52.602;12.998;2023-04-25T01:27:37;8.90;99.90
30300;DHT22;17110;52.602;12.998;2023-04-25T01:30:04;8.90;99.90
30300;DHT22;17110;52.602;12.998;2023-04-25T01:32:31;8.90;99.90
30300;DHT22;17110;52.602;12.998;2023-04-25T01:35:04;8.90;99.90
30300;DHT22;17110;52.602;12.998;2023-04-25T01:37:35;8.90;99.90
30300;DHT22;17110;52.602;12.998;2023-04-25T01:40:01;8.80;99.90
30300;DHT22;17110;52.602;12.998;2023-04-25T01:42:26;8.80;99.90
30300;DHT22;17110;52.602;12.998;2023-04-25T01:44:52;8.80;99.90
30300;DHT22;17110;52.602;12.998;2023-04-25T01:47:18;8.80;99.90
30300;DHT22;17110;52.602;12.998;2023-04-25T01:49:44;8.70;99.90
30300;DHT22;17110;52.602;12.998;2023-04-25T01:52:09;8.80;99.90
30300;DHT22;17110;52.602;12.998;2023-04-25T01:54:35;8.80;99.90
30300;DHT22;17110;52.602;12.998;2023-04-25T01:57:00;8.90;99.90
30300;DHT22;17110;52.602;12.998;2023-04-25T01:59:27;8.80;99.90
30300;DHT22;17110;52.602;12.998;2023-04-25T02:01:52;8.80;99.90
30300;DHT22;17110;52.602;12.998;2023-04-25T02:04:18;8.80;99.90
30300;DHT22;17110;52.602;12.998;2023-04-25T02:06:43;8.90;99.90
30300;DHT22;17110;52.602;12.998;2023-04-25T02:09:09;8.70;99.90
30300;DHT22;17110;52.602;12.998;2023-04-25T02:11:34;8.70;99.90
30300;DHT22;17110;52.602;12.998;2023-04-25T02:14:00;8.80;99.90
30300;DHT22;17110;52.602;12.998;2023-04-25T02:16:26;8.70;99.90
30300;DHT22;17110;52.602;12.998;2023-04-25T02:18:51;8.70;99.90
30300;DHT22;17110;52.602;12.998;2023-04-25T02:21:18;8.70;99.90
30300;DHT22;17110;52.602;12.998;2023-04-25T02:23:43;8.70;99.90
30300;DHT22;17110;52.602;12.998;2023-04-25T02:26:11;8.70;99.90
30300;DHT22;17110;52.602;12.998;2023-04-25T02:28:36;8.70;99.90
30300;DHT22;17110;52.602;12.998;2023-04-25T02:31:02;8.70;99.90
30300;DHT22;17110;52.602;12.998;2023-04-25T02:33:27;8.70;99.90
30300;DHT22;17110;52.602;12.998;2023-04-25T02:35:53;8.70;99.90
30300;DHT22;17110;52.602;12.998;2023-04-25T02:38:18;8.70;99.90
30300;DHT22;17110;52.602;12.998;2023-04-25T02:40:44;8.60;99.90
30300;DHT22;17110;52.602;12.998;2023-04-25T02:43:09;8.60;99.90
30300;DHT22;17110;52.602;12.998;2023-04-25T02:45:35;8.60;99.90
30300;DHT22;17110;52.602;12.998;2023-04-25T02:48:02;8.60;99.90
30300;DHT22;17110;52.602;12.998;2023-04-25T02:50:27;8.60;99.90
30300;DHT22;17110;52.602;12.998;2023-04-25T02:52:53;8.60;99.90
30300;DHT22;17110;52.602;12.998;2023-04-25T02:55:18;8.60;99.90
30300;DHT22;17110;52.602;12.998;2023-04-25T02:57:44;8.60;99.90
30300;DHT22;17110;52.602;12.998;2023-04-25T03:00:10;8.60;99.90
30300;DHT22;17110;52.602;12.998;2023-04-25T03:02:37;8.60;99.90
30300;DHT22;17110;52.602;12.998;2023-04-25T03:05:02;8.60;99.90
30300;DHT22;17110;52.602;12.998;2023-04-25T03:07:28;8.60;99.90
30300;DHT22;17110;52.602;12.998;2023-04-25T03:09:54;8.60;99.90
30300;DHT22;17110;52.602;12.998;2023-04-25T03:12:20;8.60;99.90
30300;DHT22;17110;52.602;12.998;2023-04-25T03:14:46;8.60;99.90
30300;DHT22;17110;52.602;12.998;2023-04-25T03:17:11;8.60;99.90
30300;DHT22;17110;52.602;12.998;2023-04-25T03:19:37;8.50;99.90
30300;DHT22;17110;52.602;12.998;2023-04-25T03:22:02;8.60;99.90
30300;DHT22;17110;52.602;12.998;2023-04-25T03:24:28;8.50;99.90
30300;DHT22;17110;52.602;12.998;2023-04-25T03:26:53;8.50;99.90
30300;DHT22;17110;52.602;12.998;2023-04-25T03:29:19;8.40;99.90
30300;DHT22;17110;52.602;12.998;2023-04-25T03:31:45;8.40;99.90
30300;DHT22;17110;52.602;12.998;2023-04-25T03:34:10;8.50;99.90
30300;DHT22;17110;52.602;12.998;2023-04-25T03:36:36;8.50;99.90
30300;DHT22;17110;52.602;12.998;2023-04-25T03:39:01;8.40;99.90
30300;DHT22;17110;52.602;12.998;2023-04-25T03:41:27;8.40;99.90
30300;DHT22;17110;52.602;12.998;2023-04-25T03:43:53;8.50;99.90
30300;DHT22;17110;52.602;12.998;2023-04-25T03:46:18;8.40;99.90
30300;DHT22;17110;52.602;12.998;2023-04-25T03:48:44;8.40;99.90
30300;DHT22;17110;52.602;12.998;2023-04-25T03:51:09;8.40;99.90
30300;DHT22;17110;52.602;12.998;2023-04-25T03:53:35;8.40;99.90
30300;DHT22;17110;52.602;12.998;2023-04-25T03:56:00;8.40;99.90
30300;DHT22;17110;52.602;12.998;2023-04-25T03:58:26;8.40;99.90
30300;DHT22;17110;52.602;12.998;2023-04-25T04:00:51;8.40;99.90
30300;DHT22;17110;52.602;12.998;2023-04-25T04:03:17;8.40;99.90
30300;DHT22;17110;52.602;12.998;2023-04-25T04:05:42;8.30;99.90
30300;DHT22;17110;52.602;12.998;2023-04-25T04:08:08;8.30;99.90
30300;DHT22;17110;52.602;12.998;2023-04-25T04:10:33;8.40;99.90
30300;DHT22;17110;52.602;12.998;2023-04-25T04:13:00;8.40;99.90
30300;DHT22;17110;52.602;12.998;2023-04-25T04:15:25;8.40;99.90
30300;DHT22;17110;52.602;12.998;2023-04-25T04:17:50;8.40;99.90
30300;DHT22;17110;52.602;12.998;2023-04-25T04:20:16;8.40;99.90
30300;DHT22;17110;52.602;12.998;2023-04-25T04:22:41;8.40;99.90
30300;DHT22;17110;52.602;12.998;2023-04-25T04:25:07;8.40;99.90
30300;DHT22;17110;52.602;12.998;2023-04-25T04:27:33;8.40;99.90
30300;DHT22;17110;52.602;12.998;2023-04-25T04:29:59;8.50;99.90
30300;DHT22;17110;52.602;12.998;2023-04-25T04:32:25;8.50;99.90
30300;DHT22;17110;52.602;12.998;2023-04-25T04:34:51;8.60;99.90
30300;DHT22;17110;52.602;12.998;2023-04-25T04:37:17;8.60;99.90
30300;DHT22;17110;52.602;12.998;2023-04-25T04:39:43;8.60;99.90
30300;DHT22;17110;52.602;12.998;2023-04-25T04:42:08;8.50;99.90
30300;DHT22;17110;52.602;12.998;2023-04-25T04:44:34;8.60;99.90
30300;DHT22;17110;52.602;12.998;2023-04-25T04:47:00;8.60;99.90
30300;DHT22;17110;52.602;12.998;2023-04-25T04:49:26;8.60;99.90
30300;DHT22;17110;52.602;12.998;2023-04-25T04:51:51;8.70;99.90
30300;DHT22;17110;52.602;12.998;2023-04-25T04:54:17;8.70;99.90
30300;DHT22;17110;52.602;12.998;2023-04-25T04:56:43;8.70;99.90
30300;DHT22;17110;52.602;12.998;2023-04-25T04:59:08;8.70;99.90
30300;DHT22;17110;52.602;12.998;2023-04-25T05:01:34;8.70;99.90
30300;DHT22;17110;52.602;12.998;2023-04-25T05:04:03;8.70;99.90
30300;DHT22;17110;52.602;12.998;2023-04-25T05:06:29;8.80;99.90
30300;DHT22;17110;52.602;12.998;2023-04-25T05:08:55;8.70;99.90
30300;DHT22;17110;52.602;12.998;2023-04-25T05:11:22;8.80;99.90
30300;DHT22;17110;52.602;12.998;2023-04-25T05:13:49;8.80;99.90
30300;DHT22;17110;52.602;12.998;2023-04-25T05:16:14;8.80;99.90
30300;DHT22;17110;52.602;12.998;2023-04-25T05:18:40;8.80;99.90
30300;DHT22;17110;52.602;12.998;2023-04-25T05:21:06;8.80;99.90
30300;DHT22;17110;52.602;12.998;2023-04-25T05:23:32;8.80;99.90
30300;DHT22;17110;52.602;12.998;2023-04-25T05:25:58;8.90;99.90
30300;DHT22;17110;52.602;12.998;2023-04-25T05:28:24;9.00;99.90
30300;DHT22;17110;52.602;12.998;2023-04-25T05:30:50;9.00;99.90
30300;DHT22;17110;52.602;12.998;2023-04-25T05:33:15;9.10;99.90
30300;DHT22;17110;52.602;12.998;2023-04-25T05:35:42;9.10;99.90
30300;DHT22;17110;52.602;12.998;2023-04-25T05:38:07;9.10;99.90
30300;DHT22;17110;52.602;12.998;2023-04-25T05:40:33;9.10;99.90
30300;DHT22;17110;52.602;12.998;2023-04-25T05:42:58;9.10;99.90
30300;DHT22;17110;52.602;12.998;2023-04-25T05:45:24;9.20;99.90
30300;DHT22;17110;52.602;12.998;2023-04-25T05:47:49;9.20;99.90
30300;DHT22;17110;52.602;12.998;2023-04-25T05:50:15;9.20;99.90
30300;DHT22;17110;52.602;12.998;2023-04-25T05:52:40;9.20;99.90
30300;DHT22;17110;52.602;12.998;2023-04-25T05:55:06;9.20;99.90
30300;DHT22;17110;52.602;12.998;2023-04-25T05:57:32;9.20;99.90
30300;DHT22;17110;52.602;12.998;2023-04-25T05:59:57;9.10;99.90
30300;DHT22;17110;52.602;12.998;2023-04-25T06:02:23;9.10;99.90
30300;DHT22;17110;52.602;12.998;2023-04-25T06:04:51;9.10;99.90
30300;DHT22;17110;52.602;12.998;2023-04-25T06:07:17;9.00;99.90
30300;DHT22;17110;52.602;12.998;2023-04-25T06:09:43;9.00;99.90
30300;DHT22;17110;52.602;12.998;2023-04-25T06:12:09;9.00;99.90
30300;DHT22;17110;52.602;12.998;2023-04-25T06:14:35;9.10;99.90
30300;DHT22;17110;52.602;12.998;2023-04-25T06:17:00;9.00;99.90
30300;DHT22;17110;52.602;12.998;2023-04-25T06:19:32;9.10;99.90
30300;DHT22;17110;52.602;12.998;2023-04-25T06:21:58;8.90;99.90
30300;DHT22;17110;52.602;12.998;2023-04-25T06:24:23;8.90;99.90
30300;DHT22;17110;52.602;12.998;2023-04-25T06:26:49;8.90;99.90
30300;DHT22;17110;52.602;12.998;2023-04-25T06:29:14;8.80;99.90
30300;DHT22;17110;52.602;12.998;2023-04-25T06:31:40;8.70;99.90
30300;DHT22;17110;52.602;12.998;2023-04-25T06:34:05;8.70;99.90
30300;DHT22;17110;52.602;12.998;2023-04-25T06:36:31;8.70;99.90
30300;DHT22;17110;52.602;12.998;2023-04-25T06:38:56;8.70;99.90
30300;DHT22;17110;52.602;12.998;2023-04-25T06:41:22;8.70;99.90
30300;DHT22;17110;52.602;12.998;2023-04-25T06:43:47;8.70;99.90
30300;DHT22;17110;52.602;12.998;2023-04-25T06:46:13;8.90;99.90
30300;DHT22;17110;52.602;12.998;2023-04-25T06:48:38;9.00;99.90
30300;DHT22;17110;52.602;12.998;2023-04-25T06:51:04;9.00;99.90
30300;DHT22;17110;52.602;12.998;2023-04-25T06:53:30;9.20;99.90
30300;DHT22;17110;52.602;12.998;2023-04-25T06:55:55;9.30;99.90
30300;DHT22;17110;52.602;12.998;2023-04-25T06:58:21;9.30;99.90
30300;DHT22;17110;52.602;12.998;2023-04-25T07:00:46;9.40;99.90
30300;DHT22;17110;52.602;12.998;2023-04-25T07:03:12;9.40;99.90
30300;DHT22;17110;52.602;12.998;2023-04-25T07:05:37;9.30;99.90
30300;DHT22;17110;52.602;12.998;2023-04-25T07:08:03;9.30;99.90
30300;DHT22;17110;52.602;12.998;2023-04-25T07:10:29;9.30;99.90
30300;DHT22;17110;52.602;12.998;2023-04-25T07:12:55;9.10;99.90
30300;DHT22;17110;52.602;12.998;2023-04-25T07:15:20;9.00;99.90
30300;DHT22;17110;52.602;12.998;2023-04-25T07:17:46;9.00;99.90
30300;DHT22;17110;52.602;12.998;2023-04-25T07:20:11;9.10;99.90
30300;DHT22;17110;52.602;12.998;2023-04-25T07:22:37;9.00;99.90
30300;DHT22;17110;52.602;12.998;2023-04-25T07:25:03;9.10;99.90
30300;DHT22;17110;52.602;12.998;2023-04-25T07:27:30;9.30;99.90
30300;DHT22;17110;52.602;12.998;2023-04-25T07:29:55;9.30;99.90
30300;DHT22;17110;52.602;12.998;2023-04-25T07:32:21;9.60;99.90
30300;DHT22;17110;52.602;12.998;2023-04-25T07:34:47;9.80;99.90
30300;DHT22;17110;52.602;12.998;2023-04-25T07:37:13;9.80;99.90
30300;DHT22;17110;52.602;12.998;2023-04-25T07:39:39;9.80;99.90
30300;DHT22;17110;52.602;12.998;2023-04-25T07:42:05;9.90;99.90
30300;DHT22;17110;52.602;12.998;2023-04-25T07:44:33;9.60;99.90
30300;DHT22;17110;52.602;12.998;2023-04-25T07:47:04;9.70;99.90
30300;DHT22;17110;52.602;12.998;2023-04-25T07:49:30;9.70;99.90
30300;DHT22;17110;52.602;12.998;2023-04-25T07:51:55;9.90;99.90
30300;DHT22;17110;52.602;12.998;2023-04-25T07:54:21;9.90;99.90
30300;DHT22;17110;52.602;12.998;2023-04-25T07:56:46;9.90;99.90
30300;DHT22;17110;52.602;12.998;2023-04-25T07:59:12;10.00;99.90
30300;DHT22;17110;52.602;12.998;2023-04-25T08:01:37;10.00;99.90
30300;DHT22;17110;52.602;12.998;2023-04-25T08:04:03;10.00;99.90
30300;DHT22;17110;52.602;12.998;2023-04-25T08:06:28;9.90;99.90
30300;DHT22;17110;52.602;12.998;2023-04-25T08:08:54;9.90;99.90
30300;DHT22;17110;52.602;12.998;2023-04-25T08:11:20;9.90;99.90
30300;DHT22;17110;52.602;12.998;2023-04-25T08:13:45;10.00;99.90
30300;DHT22;17110;52.602;12.998;2023-04-25T08:16:11;10.10;99.90
30300;DHT22;17110;52.602;12.998;2023-04-25T08:18:36;9.90;99.90
30300;DHT22;17110;52.602;12.998;2023-04-25T08:21:02;10.00;99.90
30300;DHT22;17110;52.602;12.998;2023-04-25T08:23:27;10.10;99.90
30300;DHT22;17110;52.602;12.998;2023-04-25T08:25:53;10.00;99.90
30300;DHT22;17110;52.602;12.998;2023-04-25T08:28:18;9.90;99.90
30300;DHT22;17110;52.602;12.998;2023-04-25T08:30:44;10.00;99.90
30300;DHT22;17110;52.602;12.998;2023-04-25T08:33:09;10.10;99.90
30300;DHT22;17110;52.602;12.998;2023-04-25T08:35:36;10.10;99.90
30300;DHT22;17110;52.602;12.998;2023-04-25T08:38:01;10.80;99.90
30300;DHT22;17110;52.602;12.998;2023-04-25T08:40:28;11.50;99.90
30300;DHT22;17110;52.602;12.998;2023-04-25T08:43:00;12.60;99.90
30300;DHT22;17110;52.602;12.998;2023-04-25T08:45:31;12.90;99.90
30300;DHT22;17110;52.602;12.998;2023-04-25T08:47:57;12.30;99.90
30300;DHT22;17110;52.602;12.998;2023-04-25T08:50:23;12.50;99.90
30300;DHT22;17110;52.602;12.998;2023-04-25T08:52:50;13.10;99.90
30300;DHT22;17110;52.602;12.998;2023-04-25T08:55:18;13.60;99.90
30300;DHT22;17110;52.602;12.998;2023-04-25T08:57:44;13.80;99.90
30300;DHT22;17110;52.602;12.998;2023-04-25T09:00:11;13.90;99.90
30300;DHT22;17110;52.602;12.998;2023-04-25T09:02:39;14.00;99.90
30300;DHT22;17110;52.602;12.998;2023-04-25T09:05:05;14.30;99.90
30300;DHT22;17110;52.602;12.998;2023-04-25T09:07:32;13.30;99.90
30300;DHT22;17110;52.602;12.998;2023-04-25T09:09:58;13.20;99.90
30300;DHT22;17110;52.602;12.998;2023-04-25T09:12:29;13.40;99.90
30300;DHT22;17110;52.602;12.998;2023-04-25T09:15:10;13.00;99.90
30300;DHT22;17110;52.602;12.998;2023-04-25T09:17:36;13.50;99.90
30300;DHT22;17110;52.602;12.998;2023-04-25T09:20:10;14.00;99.90
30300;DHT22;17110;52.602;12.998;2023-04-25T09:22:36;14.30;99.40
30300;DHT22;17110;52.602;12.998;2023-04-25T09:25:03;14.40;99.90
30300;DHT22;17110;52.602;12.998;2023-04-25T09:27:30;14.50;99.80
30300;DHT22;17110;52.602;12.998;2023-04-25T09:29:58;13.50;99.00
30300;DHT22;17110;52.602;12.998;2023-04-25T09:32:27;12.30;99.90
30300;DHT22;17110;52.602;12.998;2023-04-25T09:34:55;12.40;99.90
30300;DHT22;17110;52.602;12.998;2023-04-25T09:37:26;12.20;99.90
30300;DHT22;17110;52.602;12.998;2023-04-25T09:39:56;13.00;99.90
30300;DHT22;17110;52.602;12.998;2023-04-25T09:42:25;14.00;99.80
30300;DHT22;17110;52.602;12.998;2023-04-25T09:44:55;12.80;97.90
30300;DHT22;17110;52.602;12.998;2023-04-25T09:47:24;12.70;99.70
30300;DHT22;17110;52.602;12.998;2023-04-25T09:49:50;13.10;99.00
30300;DHT22;17110;52.602;12.998;2023-04-25T09:52:18;12.90;99.10
30300;DHT22;17110;52.602;12.998;2023-04-25T09:54:48;12.80;99.50
30300;DHT22;17110;52.602;12.998;2023-04-25T09:57:18;12.60;99.90
30300;DHT22;17110;52.602;12.998;2023-04-25T10:02:11;12.50;99.90
30300;DHT22;17110;52.602;12.998;2023-04-25T10:04:38;13.10;99.90
30300;DHT22;17110;52.602;12.998;2023-04-25T10:07:08;13.50;99.90
30300;DHT22;17110;52.602;12.998;2023-04-25T10:09:37;13.30;99.30
30300;DHT22;17110;52.602;12.998;2023-04-25T10:12:03;12.60;99.50
30300;DHT22;17110;52.602;12.998;2023-04-25T10:14:34;12.70;99.60
30300;DHT22;17110;52.602;12.998;2023-04-25T10:17:01;12.50;97.70
30300;DHT22;17110;52.602;12.998;2023-04-25T10:19:27;12.50;98.20
30300;DHT22;17110;52.602;12.998;2023-04-25T10:22:13;12.60;98.10
30300;DHT22;17110;52.602;12.998;2023-04-25T10:24:40;12.60;98.40
30300;DHT22;17110;52.602;12.998;2023-04-25T10:27:06;12.70;98.50
30300;DHT22;17110;52.602;12.998;2023-04-25T10:29:32;13.00;98.70
30300;DHT22;17110;52.602;12.998;2023-04-25T10:31:58;13.00;98.30
30300;DHT22;17110;52.602;12.998;2023-04-25T10:40:38;11.10;99.40
30300;DHT22;17110;52.602;12.998;2023-04-25T10:46:22;10.10;99.90
30300;DHT22;17110;52.602;12.998;2023-04-25T10:48:50;10.30;99.90
30300;DHT22;17110;52.602;12.998;2023-04-25T10:51:30;10.50;99.90
30300;DHT22;17110;52.602;12.998;2023-04-25T10:53:59;10.80;99.90
30300;DHT22;17110;52.602;12.998;2023-04-25T10:56:26;11.10;99.00
30300;DHT22;17110;52.602;12.998;2023-04-25T11:01:42;10.90;98.00
30300;DHT22;17110;52.602;12.998;2023-04-25T11:04:22;10.90;98.70
30300;DHT22;17110;52.602;12.998;2023-04-25T11:09:44;11.40;98.40
30300;DHT22;17110;52.602;12.998;2023-04-25T11:12:11;11.90;99.90
30300;DHT22;17110;52.602;12.998;2023-04-25T11:14:41;12.20;99.10
30300;DHT22;17110;52.602;12.998;2023-04-25T11:23:07;12.30;98.70
30300;DHT22;17110;52.602;12.998;2023-04-25T11:25:32;12.40;98.00
30300;DHT22;17110;52.602;12.998;2023-04-25T11:28:00;12.40;98.80
30300;DHT22;17110;52.602;12.998;2023-04-25T11:30:27;12.60;98.60
30300;DHT22;17110;52.602;12.998;2023-04-25T11:32:55;12.40;98.20
30300;DHT22;17110;52.602;12.998;2023-04-25T11:35:21;12.00;98.20
30300;DHT22;17110;52.602;12.998;2023-04-25T11:37:48;11.40;98.80
30300;DHT22;17110;52.602;12.998;2023-04-25T11:40:14;11.70;99.70
30300;DHT22;17110;52.602;12.998;2023-04-25T11:42:45;11.60;99.20
30300;DHT22;17110;52.602;12.998;2023-04-25T11:45:11;11.80;98.70
30300;DHT22;17110;52.602;12.998;2023-04-25T11:47:37;11.70;98.70
30300;DHT22;17110;52.602;12.998;2023-04-25T11:50:05;11.20;99.40
30300;DHT22;17110;52.602;12.998;2023-04-25T11:52:38;11.20;98.70
30300;DHT22;17110;52.602;12.998;2023-04-25T11:55:06;11.20;98.80
30300;DHT22;17110;52.602;12.998;2023-04-25T11:57:32;11.40;99.40
30300;DHT22;17110;52.602;12.998;2023-04-25T12:02:40;11.90;99.30
30300;DHT22;17110;52.602;12.998;2023-04-25T12:05:07;11.90;98.00
30300;DHT22;17110;52.602;12.998;2023-04-25T12:07:34;11.90;98.60
30300;DHT22;17110;52.602;12.998;2023-04-25T12:10:03;11.70;98.90
30300;DHT22;17110;52.602;12.998;2023-04-25T12:12:32;11.40;98.90
30300;DHT22;17110;52.602;12.998;2023-04-25T12:15:11;11.10;99.20
30300;DHT22;17110;52.602;12.998;2023-04-25T12:17:38;11.30;99.90
30300;DHT22;17110;52.602;12.998;2023-04-25T12:20:13;11.30;99.40
30300;DHT22;17110;52.602;12.998;2023-04-25T12:22:41;11.20;99.90
30300;DHT22;17110;52.602;12.998;2023-04-25T12:27:54;11.40;97.90
30300;DHT22;17110;52.602;12.998;2023-04-25T12:30:20;11.30;98.40
30300;DHT22;17110;52.602;12.998;2023-04-25T12:32:45;11.60;99.70
30300;DHT22;17110;52.602;12.998;2023-04-25T12:35:11;11.70;99.50
30300;DHT22;17110;52.602;12.998;2023-04-25T12:37:36;12.30;99.90
30300;DHT22;17110;52.602;12.998;2023-04-25T12:40:02;13.00;99.20
30300;DHT22;17110;52.602;12.998;2023-04-25T12:42:29;12.70;98.60
30300;DHT22;17110;52.602;12.998;2023-04-25T12:44:55;13.00;98.30
30300;DHT22;17110;52.602;12.998;2023-04-25T12:47:20;13.10;96.70
30300;DHT22;17110;52.602;12.998;2023-04-25T12:49:46;13.00;96.70
30300;DHT22;17110;52.602;12.998;2023-04-25T12:52:11;12.70;96.50
30300;DHT22;17110;52.602;12.998;2023-04-25T12:54:37;12.50;96.70
30300;DHT22;17110;52.602;12.998;2023-04-25T12:57:03;12.20;97.80
30300;DHT22;17110;52.602;12.998;2023-04-25T12:59:29;11.90;98.30
30300;DHT22;17110;52.602;12.998;2023-04-25T13:01:55;11.60;98.20
30300;DHT22;17110;52.602;12.998;2023-04-25T13:04:21;11.70;99.50
30300;DHT22;17110;52.602;12.998;2023-04-25T13:06:46;11.50;99.90
30300;DHT22;17110;52.602;12.998;2023-04-25T13:09:12;11.60;99.90
30300;DHT22;17110;52.602;12.998;2023-04-25T13:11:37;11.40;99.70
30300;DHT22;17110;52.602;12.998;2023-04-25T13:14:04;11.50;99.90
30300;DHT22;17110;52.602;12.998;2023-04-25T13:16:30;11.60;99.60
30300;DHT22;17110;52.602;12.998;2023-04-25T13:18:55;11.80;99.90
30300;DHT22;17110;52.602;12.998;2023-04-25T13:21:21;11.90;99.20
30300;DHT22;17110;52.602;12.998;2023-04-25T13:23:46;12.20;98.90
30300;DHT22;17110;52.602;12.998;2023-04-25T13:26:12;12.40;99.30
30300;DHT22;17110;52.602;12.998;2023-04-25T13:28:39;12.50;99.20
30300;DHT22;17110;52.602;12.998;2023-04-25T13:31:05;12.30;98.20
30300;DHT22;17110;52.602;12.998;2023-04-25T13:33:31;12.20;98.20
30300;DHT22;17110;52.602;12.998;2023-04-25T13:35:56;12.00;99.10
30300;DHT22;17110;52.602;12.998;2023-04-25T13:38:24;11.70;98.80
30300;DHT22;17110;52.602;12.998;2023-04-25T13:40:50;11.80;99.80
30300;DHT22;17110;52.602;12.998;2023-04-25T13:43:19;11.70;99.90
30300;DHT22;17110;52.602;12.998;2023-04-25T13:45:44;11.60;99.90
30300;DHT22;17110;52.602;12.998;2023-04-25T13:48:10;11.30;98.80
30300;DHT22;17110;52.602;12.998;2023-04-25T13:50:35;11.40;99.30
30300;DHT22;17110;52.602;12.998;2023-04-25T13:53:01;11.40;99.10
30300;DHT22;17110;52.602;12.998;2023-04-25T13:55:26;11.40;99.10
30300;DHT22;17110;52.602;12.998;2023-04-25T13:57:52;11.30;99.20
30300;DHT22;17110;52.602;12.998;2023-04-25T14:00:17;11.50;99.80
30300;DHT22;17110;52.602;12.998;2023-04-25T14:02:43;11.60;99.50
30300;DHT22;17110;52.602;12.998;2023-04-25T14:05:09;11.70;99.70
30300;DHT22;17110;52.602;12.998;2023-04-25T14:07:34;12.00;99.20
30300;DHT22;17110;52.602;12.998;2023-04-25T14:10:00;12.00;98.80
30300;DHT22;17110;52.602;12.998;2023-04-25T14:12:26;11.90;99.50
30300;DHT22;17110;52.602;12.998;2023-04-25T14:14:52;11.70;99.30
30300;DHT22;17110;52.602;12.998;2023-04-25T14:17:19;11.70;99.30
30300;DHT22;17110;52.602;12.998;2023-04-25T14:19:44;11.50;99.70
30300;DHT22;17110;52.602;12.998;2023-04-25T14:22:13;11.10;99.80
30300;DHT22;17110;52.602;12.998;2023-04-25T14:24:39;10.90;99.90
30300;DHT22;17110;52.602;12.998;2023-04-25T14:27:04;10.50;99.90
30300;DHT22;17110;52.602;12.998;2023-04-25T14:29:30;10.40;99.90
30300;DHT22;17110;52.602;12.998;2023-04-25T14:31:56;10.00;99.90
30300;DHT22;17110;52.602;12.998;2023-04-25T14:34:23;10.10;99.90
30300;DHT22;17110;52.602;12.998;2023-04-25T14:36:48;10.20;99.90
30300;DHT22;17110;52.602;12.998;2023-04-25T14:39:14;10.00;99.90
30300;DHT22;17110;52.602;12.998;2023-04-25T14:41:40;10.30;99.90
30300;DHT22;17110;52.602;12.998;2023-04-25T14:44:05;10.40;99.90
30300;DHT22;17110;52.602;12.998;2023-04-25T14:46:31;10.60;99.90
30300;DHT22;17110;52.602;12.998;2023-04-25T14:48:56;10.40;99.90
30300;DHT22;17110;52.602;12.998;2023-04-25T14:51:22;10.20;99.90
30300;DHT22;17110;52.602;12.998;2023-04-25T14:53:47;10.40;99.40
30300;DHT22;17110;52.602;12.998;2023-04-25T14:56:13;10.50;99.10
30300;DHT22;17110;52.602;12.998;2023-04-25T14:58:39;10.70;99.90
30300;DHT22;17110;52.602;12.998;2023-04-25T15:01:05;10.80;99.10
30300;DHT22;17110;52.602;12.998;2023-04-25T15:03:32;10.90;99.20
30300;DHT22;17110;52.602;12.998;2023-04-25T15:05:57;11.10;99.20
30300;DHT22;17110;52.602;12.998;2023-04-25T15:08:23;11.00;99.20
30300;DHT22;17110;52.602;12.998;2023-04-25T15:10:49;11.00;99.60
30300;DHT22;17110;52.602;12.998;2023-04-25T15:13:15;11.10;99.90
30300;DHT22;17110;52.602;12.998;2023-04-25T15:15:40;11.10;99.90
30300;DHT22;17110;52.602;12.998;2023-04-25T15:18:06;10.90;99.90
30300;DHT22;17110;52.602;12.998;2023-04-25T15:20:31;10.90;99.90
30300;DHT22;17110;52.602;12.998;2023-04-25T15:22:57;10.80;99.90
30300;DHT22;17110;52.602;12.998;2023-04-25T15:25:23;10.60;99.90
30300;DHT22;17110;52.602;12.998;2023-04-25T15:27:49;10.70;99.90
30300;DHT22;17110;52.602;12.998;2023-04-25T15:30:17;10.80;99.90
30300;DHT22;17110;52.602;12.998;2023-04-25T15:32:44;10.70;99.90
30300;DHT22;17110;52.602;12.998;2023-04-25T15:35:10;10.70;99.90
30300;DHT22;17110;52.602;12.998;2023-04-25T15:37:36;10.70;99.90
30300;DHT22;17110;52.602;12.998;2023-04-25T15:40:07;10.70;99.90
30300;DHT22;17110;52.602;12.998;2023-04-25T15:42:45;10.60;99.90
30300;DHT22;17110;52.602;12.998;2023-04-25T15:45:21;10.60;99.90
30300;DHT22;17110;52.602;12.998;2023-04-25T15:47:48;10.30;98.80
30300;DHT22;17110;52.602;12.998;2023-04-25T15:50:15;10.00;99.50